Cochrane, Canada
Current Conditions -  °F | °C
As of 1:00 AM on Monday 26 Jan 2015 (Local Time) from CYBW Reporting Station
Few Clouds Few Clouds  
Wind Chill: 41°   Ceiling: Unl
Heat Index: 48°   Visibility: 9mi
Dew Point: 30°   Wind: 20mph
Humidity: 50%   Direction: 270°W
Pressure: 29.9"   Gusts: 25mph
Location:  51.2°N, 114.45°W
Report Text: CYBW 260800Z AUTO 27017G22KT 9SM FEW250 09/M01 A2990 RMK SLP134 DENSITY ALT 4200FT
Loading
Personal Weather Stations






























Interactive Weather Map New forecast layout! Learn more

10-Day Weather Forecast

Advertisements
Track Severe Weather on mobile